Time;durP1;ratioP1;P1;durP2;ratioP2;P2;SDS_P1;SDS_P2;PMS_P1;PMS_P2;Temp;Humidity;BMP_temperature;BMP_pressure;BME280_temperature;BME280_humidity;BME280_pressure;Samples;Min_cycle;Max_cycle;Signal;HPM_P1;HPM_P2
2021/11/25 00:01:59;;;;;;;22.07;14.20;;;6.50;99.90;;;;;;5026646;28;20213;-67
2021/11/25 00:04:26;;;;;;;21.20;15.07;;;6.50;99.90;;;;;;5022672;28;20301;-68
2021/11/25 00:06:53;;;;;;;21.30;14.10;;;6.50;99.90;;;;;;5018143;28;20281;-67
2021/11/25 00:09:20;;;;;;;22.63;15.43;;;6.50;99.90;;;;;;5024367;28;20246;-68
2021/11/25 00:11:47;;;;;;;22.63;14.53;;;6.50;99.90;;;;;;5021721;28;20286;-69
2021/11/25 00:14:14;;;;;;;29.10;17.30;;;6.50;99.90;;;;;;5031510;28;20644;-66
2021/11/25 00:16:41;;;;;;;21.60;14.03;;;6.50;99.90;;;;;;5031396;28;20698;-66
2021/11/25 00:19:10;;;;;;;23.20;15.07;;;6.50;99.90;;;;;;5017401;28;20361;-65
2021/11/25 00:21:37;;;;;;;21.60;14.57;;;6.60;99.90;;;;;;5013185;28;20239;-66
2021/11/25 00:24:05;;;;;;;20.90;14.47;;;6.50;99.90;;;;;;5016013;28;20294;-66
2021/11/25 00:26:32;;;;;;;21.20;14.10;;;6.50;99.90;;;;;;5026463;28;20230;-66
2021/11/25 00:29:00;;;;;;;21.27;14.60;;;6.60;99.90;;;;;;5017928;28;20258;-66
2021/11/25 00:31:27;;;;;;;22.50;15.17;;;6.60;99.90;;;;;;5015267;28;20859;-66
2021/11/25 00:33:54;;;;;;;20.40;14.53;;;6.60;99.90;;;;;;5013915;28;20265;-65
2021/11/25 00:36:22;;;;;;;21.33;14.57;;;6.60;99.90;;;;;;5018971;28;20294;-67
2021/11/25 00:38:49;;;;;;;21.27;14.23;;;6.60;99.90;;;;;;5017682;28;20309;-66
2021/11/25 00:41:17;;;;;;;22.37;15.33;;;6.60;99.90;;;;;;5019367;28;20302;-66
2021/11/25 00:43:44;;;;;;;23.03;14.97;;;6.60;99.90;;;;;;5014231;28;20239;-66
2021/11/25 00:46:11;;;;;;;24.17;16.67;;;6.60;99.90;;;;;;5015970;28;20631;-66
2021/11/25 00:48:37;;;;;;;27.57;17.47;;;6.60;99.90;;;;;;5021321;28;20269;-66
2021/11/25 00:51:04;;;;;;;24.93;17.23;;;6.60;99.90;;;;;;5011825;28;20743;-65
2021/11/25 00:53:33;;;;;;;27.57;17.87;;;6.60;99.90;;;;;;5011798;28;20509;-66
2021/11/25 00:56:00;;;;;;;26.87;17.47;;;6.60;99.90;;;;;;5022305;28;20348;-65
2021/11/25 00:58:27;;;;;;;27.53;17.23;;;6.60;99.90;;;;;;5019595;28;20640;-66
2021/11/25 01:00:54;;;;;;;25.70;16.87;;;6.60;99.90;;;;;;5021893;28;20285;-66
2021/11/25 01:03:21;;;;;;;22.77;16.00;;;6.60;99.90;;;;;;5017715;28;20257;-66
2021/11/25 01:05:48;;;;;;;26.03;15.67;;;6.60;99.90;;;;;;5025204;28;20207;-67
2021/11/25 01:08:16;;;;;;;27.43;14.87;;;6.60;99.90;;;;;;5022016;28;20299;-66
2021/11/25 01:10:45;;;;;;;23.83;14.73;;;6.60;99.90;;;;;;5024356;28;20210;-67
2021/11/25 01:13:12;;;;;;;22.70;15.30;;;6.60;99.90;;;;;;5023096;28;20270;-67
2021/11/25 01:15:39;;;;;;;24.93;16.33;;;6.50;99.90;;;;;;5016397;28;20209;-66
2021/11/25 01:18:08;;;;;;;24.57;14.67;;;6.50;99.90;;;;;;5020268;28;20305;-65
2021/11/25 01:20:37;;;;;;;28.37;14.93;;;6.50;99.90;;;;;;5021097;28;20587;-66
2021/11/25 01:23:07;;;;;;;22.00;14.60;;;6.50;99.90;;;;;;5017580;28;20618;-68
2021/11/25 01:25:34;;;;;;;22.07;14.80;;;6.50;99.90;;;;;;5010771;28;20302;-67
2021/11/25 01:28:02;;;;;;;20.33;14.40;;;6.50;99.90;;;;;;5011376;28;20250;-67
2021/11/25 01:30:29;;;;;;;22.90;15.70;;;6.50;99.90;;;;;;5020064;28;20282;-66
2021/11/25 01:32:56;;;;;;;23.37;15.13;;;6.50;99.90;;;;;;5022796;28;20298;-66
2021/11/25 01:35:24;;;;;;;22.43;14.67;;;6.50;99.90;;;;;;5024459;28;20253;-66
2021/11/25 01:37:51;;;;;;;22.93;14.77;;;6.50;99.90;;;;;;5027043;28;20266;-66
2021/11/25 01:40:19;;;;;;;23.30;14.70;;;6.40;99.90;;;;;;5026675;28;20621;-67
2021/11/25 01:42:46;;;;;;;21.33;14.33;;;6.50;99.90;;;;;;5014505;28;20214;-64
2021/11/25 01:45:15;;;;;;;23.00;14.83;;;6.40;99.90;;;;;;5020946;28;20246;-66
2021/11/25 01:47:44;;;;;;;21.67;14.77;;;6.40;99.90;;;;;;5024112;28;20658;-67
2021/11/25 01:50:12;;;;;;;20.37;13.97;;;6.40;99.90;;;;;;5013155;28;20699;-67
2021/11/25 01:52:39;;;;;;;21.53;15.23;;;6.40;99.90;;;;;;5024423;28;20258;-67
2021/11/25 01:55:07;;;;;;;22.63;14.10;;;6.40;99.90;;;;;;5016414;28;20241;-66
2021/11/25 01:57:34;;;;;;;22.80;15.00;;;6.40;99.90;;;;;;5030290;28;20739;-66
2021/11/25 02:00:01;;;;;;;22.33;14.47;;;6.40;99.90;;;;;;5028564;28;20206;-66
2021/11/25 02:02:30;;;;;;;21.83;14.10;;;6.40;99.90;;;;;;5030632;28;20622;-67
2021/11/25 02:04:57;;;;;;;20.83;14.30;;;6.40;99.90;;;;;;5023310;28;20309;-67
2021/11/25 02:07:23;;;;;;;21.37;14.27;;;6.40;99.90;;;;;;5021288;28;20287;-66
2021/11/25 02:09:50;;;;;;;18.33;13.37;;;6.40;99.90;;;;;;5010480;28;20731;-66
2021/11/25 02:12:17;;;;;;;23.53;14.37;;;6.40;99.90;;;;;;5013380;28;20559;-66
2021/11/25 02:14:44;;;;;;;22.33;14.47;;;6.40;99.90;;;;;;5012397;28;20644;-65
2021/11/25 02:17:11;;;;;;;21.07;14.37;;;6.40;99.90;;;;;;5016229;28;20289;-66
2021/11/25 02:19:41;;;;;;;19.67;12.73;;;6.40;99.90;;;;;;5021478;28;20238;-66
2021/11/25 02:22:09;;;;;;;21.93;14.17;;;6.40;99.90;;;;;;5025696;28;20233;-66
2021/11/25 02:24:37;;;;;;;20.00;13.63;;;6.30;99.90;;;;;;5019745;28;20743;-66
2021/11/25 02:27:04;;;;;;;23.03;15.00;;;6.30;99.90;;;;;;5015522;28;20246;-67
2021/11/25 02:29:31;;;;;;;23.27;14.00;;;6.30;99.90;;;;;;5029422;28;20281;-67
2021/11/25 02:31:58;;;;;;;22.27;13.77;;;6.30;99.90;;;;;;5014020;28;20293;-66
2021/11/25 02:34:24;;;;;;;24.30;13.97;;;6.30;99.90;;;;;;5024430;28;20226;-68
2021/11/25 02:36:51;;;;;;;22.13;13.83;;;6.30;99.90;;;;;;5020825;28;20690;-69
2021/11/25 02:39:20;;;;;;;21.47;14.30;;;6.30;99.90;;;;;;5025679;28;20291;-67
2021/11/25 02:41:47;;;;;;;22.70;13.57;;;6.20;99.90;;;;;;5017821;28;20210;-66
2021/11/25 02:44:14;;;;;;;20.50;13.10;;;6.30;99.90;;;;;;5030761;28;20305;-66
2021/11/25 02:46:41;;;;;;;19.87;13.57;;;6.40;99.90;;;;;;5014095;28;20305;-66
2021/11/25 02:49:08;;;;;;;21.67;13.07;;;6.30;99.90;;;;;;5014794;28;20231;-66
2021/11/25 02:51:36;;;;;;;20.87;13.30;;;6.30;99.90;;;;;;5020368;28;20744;-68
2021/11/25 02:54:03;;;;;;;20.40;13.73;;;6.30;99.90;;;;;;5025214;28;20210;-67
2021/11/25 02:56:32;;;;;;;19.40;12.93;;;6.30;99.90;;;;;;5014826;28;20330;-66
2021/11/25 02:59:00;;;;;;;19.97;13.37;;;6.30;99.90;;;;;;5033282;28;20293;-67
2021/11/25 03:01:31;;;;;;;22.00;14.43;;;6.30;99.90;;;;;;5031036;28;20590;-67
2021/11/25 03:03:58;;;;;;;22.97;14.20;;;6.30;99.90;;;;;;5018732;28;20738;-66
2021/11/25 03:06:26;;;;;;;19.10;13.30;;;6.30;99.90;;;;;;5024988;28;20298;-66
2021/11/25 03:08:54;;;;;;;21.97;13.90;;;6.20;99.90;;;;;;5019230;28;20223;-66
2021/11/25 03:11:23;;;;;;;19.93;13.83;;;6.20;99.90;;;;;;5013732;28;20214;-67
2021/11/25 03:13:54;;;;;;;23.03;13.97;;;6.20;99.90;;;;;;5030934;28;20715;-67
2021/11/25 03:16:23;;;;;;;21.27;14.00;;;6.20;99.90;;;;;;5017956;28;20314;-66
2021/11/25 03:18:51;;;;;;;21.80;13.53;;;6.20;99.90;;;;;;5029831;28;20313;-65
2021/11/25 03:21:20;;;;;;;21.10;14.73;;;6.20;99.90;;;;;;5032992;28;20304;-66
2021/11/25 03:23:48;;;;;;;20.50;13.57;;;6.20;99.90;;;;;;5031552;28;20736;-67
2021/11/25 03:26:18;;;;;;;22.83;14.13;;;6.10;99.90;;;;;;5026440;28;20210;-67
2021/11/25 03:28:46;;;;;;;21.40;14.17;;;6.20;99.90;;;;;;5018431;28;20222;-66
2021/11/25 03:31:17;;;;;;;22.13;14.10;;;6.10;99.90;;;;;;5017627;28;20669;-68
2021/11/25 03:33:44;;;;;;;24.37;14.40;;;6.20;99.90;;;;;;5026368;28;20616;-66
2021/11/25 03:36:12;;;;;;;21.67;13.83;;;6.10;99.90;;;;;;5026696;28;20263;-66
2021/11/25 03:38:40;;;;;;;23.97;14.97;;;6.20;99.90;;;;;;5020976;28;20246;-65
2021/11/25 03:41:09;;;;;;;21.10;14.17;;;6.20;99.90;;;;;;5024122;28;20195;-66
2021/11/25 03:43:36;;;;;;;21.83;14.50;;;6.20;99.90;;;;;;5013154;28;20294;-67
2021/11/25 03:46:03;;;;;;;24.77;15.00;;;6.20;99.90;;;;;;5027003;28;20213;-66
2021/11/25 03:48:31;;;;;;;24.93;14.93;;;6.20;99.90;;;;;;5032503;28;20217;-67
2021/11/25 03:50:59;;;;;;;21.13;14.97;;;6.20;99.90;;;;;;5021358;28;20307;-66
2021/11/25 03:53:27;;;;;;;23.10;15.07;;;6.20;99.90;;;;;;5016614;28;20198;-66
2021/11/25 03:55:54;;;;;;;25.40;16.40;;;6.20;99.90;;;;;;5024859;28;20220;-66
2021/11/25 03:58:21;;;;;;;27.00;15.93;;;6.10;99.90;;;;;;5026160;28;20696;-65
2021/11/25 04:00:52;;;;;;;26.53;17.07;;;6.10;99.90;;;;;;5024641;28;20306;-67
2021/11/25 04:03:19;;;;;;;24.93;16.33;;;6.10;99.90;;;;;;5014083;28;20203;-66
2021/11/25 04:05:47;;;;;;;27.70;17.00;;;6.20;99.90;;;;;;5017430;28;20298;-65
2021/11/25 04:08:14;;;;;;;24.43;16.03;;;6.10;99.90;;;;;;5025888;28;20257;-67
2021/11/25 04:10:42;;;;;;;25.70;16.90;;;6.10;99.90;;;;;;5025381;28;20216;-66
2021/11/25 04:13:09;;;;;;;26.17;17.43;;;6.10;99.90;;;;;;5025223;28;20274;-66
2021/11/25 04:15:36;;;;;;;29.20;18.07;;;6.10;99.90;;;;;;5022761;28;20278;-66
2021/11/25 04:18:03;;;;;;;27.17;17.70;;;6.10;99.90;;;;;;5027128;28;20290;-67
2021/11/25 04:20:30;;;;;;;30.70;18.17;;;6.10;99.90;;;;;;5028855;28;20662;-66
2021/11/25 04:22:59;;;;;;;29.57;19.27;;;6.10;99.90;;;;;;5024180;28;20203;-67
2021/11/25 04:25:26;;;;;;;26.73;17.23;;;6.10;99.90;;;;;;5015974;28;20215;-67
2021/11/25 04:27:53;;;;;;;28.27;18.30;;;6.10;99.90;;;;;;5019561;28;20210;-67
2021/11/25 04:30:37;;;;;;;30.97;19.17;;;6.00;99.90;;;;;;5032245;28;20298;-66
2021/11/25 04:35:48;;;;;;;29.67;18.60;;;6.00;99.90;;;;;;5020047;28;20354;-68
2021/11/25 04:38:18;;;;;;;27.73;17.33;;;5.90;99.90;;;;;;5031142;28;20289;-66
2021/11/25 04:40:50;;;;;;;27.77;17.80;;;6.00;99.90;;;;;;5018333;28;20270;-67
2021/11/25 04:43:18;;;;;;;30.10;17.67;;;6.00;99.90;;;;;;5024045;28;20211;-66
2021/11/25 04:45:47;;;;;;;26.80;18.10;;;6.00;99.90;;;;;;5025482;28;20782;-67
2021/11/25 04:48:17;;;;;;;29.20;17.73;;;6.00;99.90;;;;;;5026816;28;20231;-66
2021/11/25 04:50:45;;;;;;;28.00;19.00;;;5.90;99.90;;;;;;5021107;28;20578;-67
2021/11/25 04:53:13;;;;;;;27.83;18.00;;;5.90;99.90;;;;;;5017935;28;20250;-66
2021/11/25 04:55:43;;;;;;;25.97;17.13;;;5.80;99.90;;;;;;5016695;28;20539;-65
2021/11/25 04:58:10;;;;;;;27.97;17.77;;;5.90;99.90;;;;;;5019591;28;20596;-67
2021/11/25 05:00:37;;;;;;;26.53;17.10;;;5.80;99.90;;;;;;5011768;28;20209;-66
2021/11/25 05:03:05;;;;;;;31.77;18.67;;;5.80;99.90;;;;;;5024270;28;20241;-67
2021/11/25 05:05:31;;;;;;;27.77;17.63;;;5.80;99.90;;;;;;5015249;28;20245;-67
2021/11/25 05:07:58;;;;;;;25.83;16.57;;;5.80;99.90;;;;;;5022453;28;20214;-67
2021/11/25 05:10:25;;;;;;;30.93;18.37;;;5.70;99.90;;;;;;5017289;28;20676;-67
2021/11/25 05:12:54;;;;;;;27.17;17.17;;;5.70;99.90;;;;;;5021468;28;20317;-67
2021/11/25 05:15:20;;;;;;;25.50;18.27;;;5.70;99.90;;;;;;5012664;28;20306;-67
2021/11/25 05:17:48;;;;;;;27.47;17.53;;;5.70;99.90;;;;;;5017345;28;20318;-66
2021/11/25 05:20:16;;;;;;;30.00;17.20;;;5.70;99.90;;;;;;5031087;28;20214;-67
2021/11/25 05:22:44;;;;;;;24.80;16.73;;;5.70;99.90;;;;;;5023867;28;20621;-67
2021/11/25 05:25:13;;;;;;;29.50;17.47;;;5.70;99.90;;;;;;5011301;28;20208;-67
2021/11/25 05:27:40;;;;;;;26.93;16.57;;;5.70;99.90;;;;;;5016493;28;20242;-68
2021/11/25 05:30:11;;;;;;;27.43;17.47;;;5.60;99.90;;;;;;5019077;28;20931;-67
2021/11/25 05:32:38;;;;;;;25.97;15.47;;;5.50;99.90;;;;;;5011328;28;20207;-64
2021/11/25 05:35:07;;;;;;;25.83;16.40;;;5.50;99.90;;;;;;5021546;28;20613;-65
2021/11/25 05:37:34;;;;;;;25.10;16.50;;;5.50;99.90;;;;;;5016594;28;20210;-66
2021/11/25 05:40:02;;;;;;;24.20;15.97;;;5.40;99.90;;;;;;5028977;28;20746;-67
2021/11/25 05:42:30;;;;;;;25.87;16.87;;;5.30;99.90;;;;;;5016666;28;20211;-67
2021/11/25 05:44:57;;;;;;;24.00;15.33;;;5.20;99.90;;;;;;5029712;28;20293;-66
2021/11/25 05:47:26;;;;;;;25.00;16.47;;;5.10;99.90;;;;;;5026495;28;20243;-67
2021/11/25 05:49:53;;;;;;;25.10;15.30;;;5.10;99.90;;;;;;5010164;28;20262;-66
2021/11/25 05:52:20;;;;;;;23.87;15.67;;;5.00;99.90;;;;;;5011012;28;20246;-65
2021/11/25 05:54:47;;;;;;;24.03;15.60;;;5.00;99.90;;;;;;5024311;28;20206;-67
2021/11/25 05:57:14;;;;;;;25.33;15.47;;;4.90;99.90;;;;;;5022933;28;20285;-66
2021/11/25 05:59:41;;;;;;;28.37;16.90;;;4.90;99.90;;;;;;5010767;28;20250;-67
2021/11/25 06:02:10;;;;;;;24.40;15.50;;;4.90;99.90;;;;;;5028407;28;20289;-67
2021/11/25 06:04:38;;;;;;;23.03;16.00;;;4.80;99.90;;;;;;5018097;28;20208;-66
2021/11/25 06:07:05;;;;;;;21.70;15.73;;;4.80;99.90;;;;;;5017935;28;20321;-67
2021/11/25 06:09:32;;;;;;;25.23;15.43;;;4.70;99.90;;;;;;5012405;28;20640;-66
2021/11/25 06:11:59;;;;;;;22.93;15.63;;;4.70;99.90;;;;;;5013177;28;20593;-66
2021/11/25 06:14:26;;;;;;;21.70;14.97;;;4.60;99.90;;;;;;5030117;28;20290;-67
2021/11/25 06:16:53;;;;;;;20.37;13.90;;;4.60;99.90;;;;;;5016592;28;20294;-71
2021/11/25 06:19:20;;;;;;;22.60;15.53;;;4.50;99.90;;;;;;5014411;28;20298;-71
2021/11/25 06:21:48;;;;;;;21.77;15.03;;;4.50;99.90;;;;;;5031447;28;20251;-70
2021/11/25 06:24:15;;;;;;;22.67;14.43;;;4.50;99.90;;;;;;5010543;28;20263;-67
2021/11/25 06:26:44;;;;;;;21.47;15.00;;;4.40;99.90;;;;;;5011611;28;20421;-66
2021/11/25 06:29:11;;;;;;;25.30;16.40;;;4.40;99.90;;;;;;5028487;28;20722;-66
2021/11/25 06:31:38;;;;;;;25.27;15.40;;;4.30;99.90;;;;;;5024454;28;20558;-68
2021/11/25 06:34:05;;;;;;;25.80;15.13;;;4.30;99.90;;;;;;5027502;28;20208;-66
2021/11/25 06:36:32;;;;;;;23.40;15.23;;;4.30;99.90;;;;;;5017146;28;20306;-66
2021/11/25 06:39:00;;;;;;;24.03;15.53;;;4.20;99.90;;;;;;5023935;28;20203;-68
2021/11/25 06:41:27;;;;;;;21.70;14.23;;;4.20;99.90;;;;;;5009926;28;20275;-66
2021/11/25 06:43:54;;;;;;;23.30;16.00;;;4.30;99.90;;;;;;5012243;28;20313;-65
2021/11/25 06:46:21;;;;;;;22.53;14.27;;;4.20;99.90;;;;;;5013345;28;20226;-67
2021/11/25 06:48:48;;;;;;;22.93;14.90;;;4.20;99.90;;;;;;5018777;28;20727;-66
2021/11/25 06:51:15;;;;;;;22.93;15.27;;;4.10;99.90;;;;;;5014732;28;20651;-66
2021/11/25 06:53:42;;;;;;;21.67;14.33;;;4.20;99.90;;;;;;5014771;28;20219;-67
2021/11/25 06:56:10;;;;;;;22.20;14.53;;;4.20;99.90;;;;;;5010192;28;20227;-67
2021/11/25 06:58:37;;;;;;;22.87;14.07;;;4.20;99.90;;;;;;5010707;28;20242;-66
2021/11/25 07:01:07;;;;;;;22.00;14.03;;;4.20;99.90;;;;;;5014770;28;20286;-66
2021/11/25 07:03:34;;;;;;;25.77;14.83;;;4.30;99.90;;;;;;5013027;28;20211;-68
2021/11/25 07:06:01;;;;;;;21.37;14.87;;;4.40;99.90;;;;;;5010134;28;20234;-68
2021/11/25 07:08:29;;;;;;;19.83;14.03;;;4.40;99.90;;;;;;5009982;28;20257;-67
2021/11/25 07:10:56;;;;;;;22.20;14.43;;;4.60;99.90;;;;;;5019362;28;20675;-68
2021/11/25 07:13:24;;;;;;;24.20;14.13;;;4.70;99.90;;;;;;5009849;28;20242;-67
2021/11/25 07:15:51;;;;;;;23.87;15.43;;;4.80;99.90;;;;;;5010104;28;20234;-69
2021/11/25 07:18:18;;;;;;;23.30;14.03;;;4.80;99.90;;;;;;5010116;28;20219;-69
2021/11/25 07:20:46;;;;;;;23.10;16.17;;;4.90;99.90;;;;;;5022177;28;20265;-68
2021/11/25 07:23:14;;;;;;;24.73;16.27;;;4.90;99.90;;;;;;5010212;28;20437;-68
2021/11/25 07:25:41;;;;;;;23.37;15.93;;;5.00;99.90;;;;;;5014298;28;20339;-70
2021/11/25 07:28:08;;;;;;;25.93;15.87;;;5.00;99.90;;;;;;5012047;28;20235;-68
2021/11/25 07:30:36;;;;;;;23.03;15.63;;;5.20;99.90;;;;;;5014221;28;20262;-68
2021/11/25 07:33:03;;;;;;;22.10;15.00;;;5.30;99.90;;;;;;5013587;28;20307;-69
2021/11/25 07:35:30;;;;;;;24.47;15.83;;;5.40;99.90;;;;;;5013492;28;20444;-68
2021/11/25 07:37:58;;;;;;;21.83;14.50;;;5.60;99.90;;;;;;5013207;28;20294;-69
2021/11/25 07:40:25;;;;;;;19.87;14.67;;;5.70;99.90;;;;;;5016439;28;20207;-70
2021/11/25 07:42:53;;;;;;;18.40;13.10;;;5.90;99.90;;;;;;5015130;28;20943;-68
2021/11/25 07:45:22;;;;;;;21.10;14.33;;;6.00;99.90;;;;;;5018490;28;20324;-67
2021/11/25 07:47:52;;;;;;;20.37;12.43;;;6.10;99.90;;;;;;5022841;28;20680;-70
2021/11/25 07:50:25;;;;;;;23.27;13.87;;;6.20;99.90;;;;;;5022927;28;20594;-69
2021/11/25 07:52:52;;;;;;;20.40;13.13;;;6.30;99.90;;;;;;5031131;28;20222;-70
2021/11/25 07:55:19;;;;;;;19.67;13.53;;;6.40;99.90;;;;;;5027376;28;20249;-68
2021/11/25 07:57:48;;;;;;;20.97;14.17;;;6.50;99.90;;;;;;5022098;28;20227;-69
2021/11/25 08:00:16;;;;;;;20.07;13.13;;;6.50;99.90;;;;;;5015411;28;20649;-68
2021/11/25 08:02:43;;;;;;;19.23;12.77;;;6.60;99.90;;;;;;5022916;28;20361;-69
2021/11/25 08:05:12;;;;;;;20.43;13.73;;;6.70;99.90;;;;;;5014354;28;20692;-70
2021/11/25 08:07:40;;;;;;;20.10;12.80;;;6.80;99.90;;;;;;5014718;28;20207;-68
2021/11/25 08:10:10;;;;;;;21.23;13.97;;;6.90;99.90;;;;;;5017780;28;20224;-69
2021/11/25 08:12:37;;;;;;;21.60;13.53;;;7.00;99.90;;;;;;5012953;28;20660;-69
2021/11/25 08:15:06;;;;;;;23.03;14.23;;;7.10;99.90;;;;;;5025603;28;20256;-69
2021/11/25 08:17:33;;;;;;;19.33;13.17;;;7.20;99.90;;;;;;5021504;28;20299;-69
2021/11/25 08:20:00;;;;;;;19.33;13.13;;;7.30;99.90;;;;;;5021315;28;20202;-69
2021/11/25 08:22:28;;;;;;;20.17;13.43;;;7.40;99.90;;;;;;5028299;28;20231;-69
2021/11/25 08:24:55;;;;;;;21.10;12.60;;;7.60;99.90;;;;;;5012851;28;20238;-70
2021/11/25 08:27:22;;;;;;;19.93;12.83;;;7.80;99.90;;;;;;5011754;28;20211;-68
2021/11/25 08:29:49;;;;;;;21.00;14.00;;;7.90;99.90;;;;;;5013583;28;20223;-68
2021/11/25 08:32:16;;;;;;;20.63;13.70;;;8.10;99.90;;;;;;5012449;28;20298;-69
2021/11/25 08:34:43;;;;;;;20.23;13.37;;;8.30;99.90;;;;;;5023553;28;20392;-70
2021/11/25 08:37:10;;;;;;;19.60;13.20;;;8.80;99.90;;;;;;5015704;28;20235;-68
2021/11/25 08:39:38;;;;;;;21.23;13.40;;;10.10;99.90;;;;;;5012751;28;20583;-68
2021/11/25 08:42:06;;;;;;;19.67;13.73;;;12.10;99.90;;;;;;5023196;28;20206;-68
2021/11/25 08:44:33;;;;;;;23.17;14.60;;;14.30;99.30;;;;;;5013024;28;20645;-68
2021/11/25 08:47:00;;;;;;;19.23;14.83;;;16.10;92.00;;;;;;5011980;28;20639;-67
2021/11/25 08:49:29;;;;;;;18.23;14.20;;;17.80;77.80;;;;;;5022122;28;20565;-66
2021/11/25 08:51:57;;;;;;;23.87;15.40;;;19.50;70.10;;;;;;5013281;28;20610;-67
2021/11/25 08:54:24;;;;;;;27.48;16.25;;;20.90;59.80;;;;;;5023438;28;20345;-66
2021/11/25 08:56:53;;;;;;;22.13;15.77;;;21.90;55.20;;;;;;5017339;28;20742;-68
2021/11/25 08:59:20;;;;;;;19.70;15.27;;;23.00;51.60;;;;;;5020487;28;20311;-67
2021/11/25 09:01:47;;;;;;;20.92;16.17;;;23.80;48.60;;;;;;5013864;28;20250;-66
2021/11/25 09:04:14;;;;;;;19.13;15.75;;;24.50;46.70;;;;;;5024370;28;20238;-66
2021/11/25 09:06:41;;;;;;;18.75;14.70;;;25.20;45.40;;;;;;5017897;28;20305;-66
2021/11/25 09:09:09;;;;;;;19.58;16.02;;;26.00;43.60;;;;;;5029231;28;20716;-66
2021/11/25 09:11:37;;;;;;;18.67;16.20;;;26.70;42.00;;;;;;5016131;28;20243;-67
2021/11/25 09:14:06;;;;;;;19.33;16.23;;;27.70;40.50;;;;;;5026166;28;20381;-68
2021/11/25 09:16:34;;;;;;;19.92;16.50;;;28.40;38.80;;;;;;5021350;28;20211;-67
2021/11/25 09:19:01;;;;;;;17.92;15.40;;;28.90;37.10;;;;;;5025992;28;20317;-66
2021/11/25 09:21:30;;;;;;;16.55;14.18;;;29.20;36.10;;;;;;5030502;28;20280;-67
2021/11/25 09:23:57;;;;;;;17.33;15.50;;;29.70;35.40;;;;;;5014848;28;20211;-67
2021/11/25 09:26:24;;;;;;;17.27;15.23;;;30.10;34.50;;;;;;5022326;28;20210;-66
2021/11/25 09:28:51;;;;;;;18.65;15.35;;;30.40;33.70;;;;;;5025786;28;20214;-67
2021/11/25 09:31:19;;;;;;;16.58;14.88;;;30.10;33.20;;;;;;5020703;28;20569;-66
2021/11/25 09:33:46;;;;;;;20.13;16.17;;;30.10;33.20;;;;;;5026248;28;20655;-68
2021/11/25 09:36:13;;;;;;;18.98;15.55;;;30.50;33.50;;;;;;5011147;28;20281;-66
2021/11/25 09:38:40;;;;;;;18.35;15.50;;;30.90;32.80;;;;;;5024912;28;20293;-66
2021/11/25 09:41:07;;;;;;;18.52;16.02;;;31.50;32.30;;;;;;5030199;28;20199;-67
2021/11/25 09:43:34;;;;;;;19.52;16.17;;;32.00;31.10;;;;;;5020212;28;20322;-67
2021/11/25 09:46:02;;;;;;;17.50;15.48;;;32.50;31.00;;;;;;5024325;28;20246;-64
2021/11/25 09:48:30;;;;;;;18.27;15.07;;;33.20;30.30;;;;;;5012359;28;20350;-64
2021/11/25 09:50:58;;;;;;;17.55;15.13;;;33.80;29.30;;;;;;5011360;28;20334;-65
2021/11/25 09:53:27;;;;;;;17.55;15.65;;;34.00;28.90;;;;;;5021416;28;20300;-65
2021/11/25 09:55:56;;;;;;;18.25;15.00;;;33.80;28.20;;;;;;5014896;28;20282;-66
2021/11/25 09:58:26;;;;;;;17.55;15.68;;;33.90;28.60;;;;;;5025524;28;20199;-64
2021/11/25 10:00:56;;;;;;;17.67;15.30;;;34.40;28.30;;;;;;5021503;28;20260;-65
2021/11/25 10:03:23;;;;;;;17.40;15.65;;;34.90;28.30;;;;;;5018584;28;20254;-66
2021/11/25 10:05:54;;;;;;;17.50;15.65;;;35.40;27.60;;;;;;5023015;28;20237;-64
2021/11/25 10:08:30;;;;;;;17.85;14.60;;;35.60;27.20;;;;;;5017836;28;20287;-66
2021/11/25 10:11:04;;;;;;;16.60;14.90;;;35.50;27.20;;;;;;5016459;28;20302;-67
2021/11/25 10:13:42;;;;;;;18.27;15.70;;;35.70;27.00;;;;;;5021062;28;20293;-67
2021/11/25 10:16:14;;;;;;;20.13;15.43;;;35.90;26.60;;;;;;5023670;28;20202;-68
2021/11/25 10:18:42;;;;;;;17.63;15.27;;;36.30;26.30;;;;;;5013219;28;20209;-69
2021/11/25 10:21:13;;;;;;;16.27;14.60;;;36.60;26.10;;;;;;5022816;28;20269;-68
2021/11/25 10:23:41;;;;;;;16.25;14.57;;;36.40;25.40;;;;;;5018987;28;20231;-66
2021/11/25 10:26:10;;;;;;;17.10;15.20;;;35.70;25.70;;;;;;5013414;28;20640;-67
2021/11/25 10:28:44;;;;;;;16.77;15.00;;;35.40;26.00;;;;;;5023703;28;20211;-68
2021/11/25 10:31:18;;;;;;;17.48;13.75;;;35.20;26.10;;;;;;5016166;28;20214;-68
2021/11/25 10:33:54;;;;;;;17.92;15.40;;;35.20;26.00;;;;;;5013092;28;20206;-68
2021/11/25 10:42:02;;;;;;;17.73;14.43;;;34.80;26.30;;;;;;5009103;28;20577;-68
2021/11/25 10:44:30;;;;;;;18.33;14.85;;;34.70;26.50;;;;;;5013021;28;20231;-68
2021/11/25 10:47:02;;;;;;;18.17;16.38;;;34.50;26.40;;;;;;5022534;28;20234;-66
2021/11/25 10:49:35;;;;;;;16.80;15.10;;;34.90;26.50;;;;;;5012665;28;20203;-68
2021/11/25 10:52:10;;;;;;;19.70;15.85;;;35.30;26.00;;;;;;5016074;28;20313;-67
2021/11/25 10:54:43;;;;;;;16.73;14.90;;;35.80;25.80;;;;;;5023455;28;20573;-67
2021/11/25 10:57:10;;;;;;;16.67;14.90;;;36.10;25.50;;;;;;5012237;28;20326;-66
2021/11/25 10:59:40;;;;;;;17.60;15.80;;;36.10;25.20;;;;;;5025216;28;20290;-68
2021/11/25 11:02:20;;;;;;;17.20;14.88;;;36.20;25.40;;;;;;5019803;28;20293;-67
2021/11/25 11:04:48;;;;;;;22.02;15.95;;;36.30;25.40;;;;;;5012894;28;20286;-68
2021/11/25 11:07:28;;;;;;;17.83;15.93;;;36.60;25.10;;;;;;5018728;28;20238;-69
2021/11/25 11:09:56;;;;;;;18.63;16.33;;;36.70;24.80;;;;;;5028739;28;20300;-67
2021/11/25 11:12:29;;;;;;;19.50;16.80;;;36.50;25.00;;;;;;5017021;28;20297;-68
2021/11/25 11:15:01;;;;;;;17.38;15.55;;;36.50;24.90;;;;;;5018962;28;20232;-68
2021/11/25 11:17:32;;;;;;;18.77;16.88;;;36.40;24.60;;;;;;5020650;28;20205;-68
2021/11/25 11:20:14;;;;;;;17.85;15.95;;;36.20;24.70;;;;;;5018544;28;20214;-67
2021/11/25 11:22:51;;;;;;;20.67;17.65;;;36.10;24.80;;;;;;5019846;28;20207;-67
2021/11/25 11:25:22;;;;;;;20.00;16.80;;;35.90;24.90;;;;;;5027593;28;20750;-67
2021/11/25 11:27:51;;;;;;;19.77;17.67;;;34.60;24.00;;;;;;5013550;28;20314;-67
2021/11/25 11:30:18;;;;;;;19.27;17.35;;;32.00;25.10;;;;;;5021579;28;20668;-67
2021/11/25 11:32:45;;;;;;;21.80;17.83;;;29.00;27.10;;;;;;5016204;28;20632;-67
2021/11/25 11:35:14;;;;;;;21.15;17.50;;;26.40;29.00;;;;;;5021569;28;20648;-68
2021/11/25 11:37:45;;;;;;;20.67;17.83;;;24.20;31.10;;;;;;5025861;28;20203;-67
2021/11/25 11:40:12;;;;;;;22.17;17.98;;;22.10;33.00;;;;;;5023516;28;20199;-67
2021/11/25 11:42:40;;;;;;;21.67;18.08;;;20.40;35.60;;;;;;5023717;28;20243;-68
2021/11/25 11:45:08;;;;;;;21.40;17.45;;;18.90;37.50;;;;;;5030787;28;20214;-67
2021/11/25 11:47:36;;;;;;;24.33;19.10;;;17.70;39.30;;;;;;5022945;28;20249;-67
2021/11/25 11:50:09;;;;;;;24.53;18.87;;;16.50;40.90;;;;;;5027355;28;20294;-68
2021/11/25 11:52:52;;;;;;;23.63;18.00;;;15.60;43.00;;;;;;5026804;28;20644;-67
2021/11/25 11:55:37;;;;;;;25.73;18.00;;;14.70;44.60;;;;;;5028488;28;20719;-67
2021/11/25 11:58:29;;;;;;;24.57;17.17;;;13.70;46.50;;;;;;5029718;28;20226;-68
2021/11/25 12:00:59;;;;;;;25.57;17.40;;;12.90;48.60;;;;;;5029684;28;20245;-68
2021/11/25 12:03:31;;;;;;;23.27;16.97;;;12.30;49.50;;;;;;5030670;28;20234;-68
2021/11/25 12:05:58;;;;;;;22.40;16.40;;;11.80;50.90;;;;;;5022926;28;20570;-68
2021/11/25 12:08:47;;;;;;;22.67;16.83;;;11.30;52.20;;;;;;5026400;28;20638;-70
2021/11/25 12:11:20;;;;;;;23.83;16.70;;;10.80;53.40;;;;;;5023713;28;20226;-68
2021/11/25 12:14:02;;;;;;;24.13;17.07;;;10.40;54.40;;;;;;5023999;28;20754;-70
2021/11/25 12:16:30;;;;;;;26.00;17.63;;;10.10;55.70;;;;;;5027173;28;20207;-69
2021/11/25 12:19:00;;;;;;;25.23;16.87;;;9.90;57.50;;;;;;5025942;28;20272;-67
2021/11/25 12:21:39;;;;;;;26.17;17.57;;;9.70;58.20;;;;;;5027259;28;20289;-69
2021/11/25 12:24:16;;;;;;;28.83;17.63;;;9.50;59.20;;;;;;5026925;28;20885;-68
2021/11/25 12:27:09;;;;;;;29.37;18.40;;;9.30;60.20;;;;;;5029052;28;20548;-67
2021/11/25 12:29:43;;;;;;;26.43;17.60;;;9.20;61.10;;;;;;5028274;28;20195;-67
2021/11/25 12:32:36;;;;;;;32.67;18.77;;;9.10;61.40;;;;;;5025576;28;20301;-67
2021/11/25 12:35:40;;;;;;;29.97;18.13;;;8.90;62.40;;;;;;5023504;28;20560;-67
2021/11/25 12:38:10;;;;;;;28.97;17.57;;;8.80;63.40;;;;;;5024986;28;20205;-69
2021/11/25 12:40:53;;;;;;;29.43;18.23;;;8.60;64.00;;;;;;5027226;28;20250;-68
2021/11/25 12:43:24;;;;;;;29.10;18.30;;;8.50;65.00;;;;;;5026986;28;20282;-68
2021/11/25 12:45:54;;;;;;;30.10;18.73;;;8.40;66.40;;;;;;5027668;28;20696;-69
2021/11/25 12:48:33;;;;;;;27.27;17.67;;;8.30;67.30;;;;;;5021461;28;20298;-68
2021/11/25 12:51:04;;;;;;;26.83;17.17;;;8.20;68.10;;;;;;5029162;28;20301;-68